createdAt,value
2023-04-09T00:26:01.750Z,7.78
2023-04-09T00:54:59.765Z,7.49
2023-04-09T01:23:59.882Z,7.15
2023-04-09T01:52:58.170Z,6.71
2023-04-09T02:21:58.797Z,6.27
2023-04-09T02:51:04.146Z,6.04
2023-04-09T03:20:03.385Z,5.62
2023-04-09T03:49:03.311Z,5.22
2023-04-09T04:18:01.069Z,5.04
2023-04-09T04:46:56.649Z,5.03
2023-04-09T05:15:59.405Z,6.27
2023-04-09T05:45:20.752Z,7.23
2023-04-09T06:14:38.563Z,9.23
2023-04-09T06:44:00.327Z,11.22
2023-04-09T07:13:06.911Z,11.97
2023-04-09T07:42:18.244Z,14.14
2023-04-09T08:11:18.477Z,15.8
2023-04-09T08:40:19.664Z,15.65
2023-04-09T09:09:27.645Z,16.08
2023-04-09T09:38:56.011Z,16.05
2023-04-09T10:07:56.286Z,14.96
2023-04-09T10:36:39.216Z,13.61
2023-04-09T11:05:43.402Z,13.92
2023-04-09T11:34:50.685Z,15.05
2023-04-09T12:03:41.003Z,14.8
2023-04-09T12:32:06.601Z,14.35
2023-04-09T13:00:40.577Z,14.14
2023-04-09T13:29:38.979Z,13.92
2023-04-09T13:58:36.802Z,14.34
2023-04-09T14:27:37.959Z,14.24
2023-04-09T14:56:29.953Z,14.58
2023-04-09T15:25:37.892Z,15.25
2023-04-09T15:54:31.320Z,14.99
2023-04-09T16:23:33.911Z,15.06
2023-04-09T16:52:29.340Z,14.93
2023-04-09T17:21:25.427Z,14.5
2023-04-09T17:50:27.624Z,14.14
2023-04-09T18:19:26.702Z,13.81
2023-04-09T18:48:20.226Z,12.74
2023-04-09T19:17:18.547Z,11.87
2023-04-09T19:46:02.472Z,11.13
2023-04-09T20:14:52.218Z,10.4
2023-04-09T20:43:51.983Z,9.92
2023-04-09T21:12:44.587Z,9.99
2023-04-09T21:41:30.187Z,11.52
2023-04-09T22:10:19.223Z,11.31
2023-04-09T22:39:18.330Z,11.11
2023-04-09T23:08:20.673Z,10.94
2023-04-09T23:37:21.885Z,10.29
